sensor_id;sensor_type;location;lat;lon;timestamp;P1;P2;P0
60816;PMS5003;51921;51.518;-3.188;2024-02-26T00:01:14;8;8;
60816;PMS5003;51921;51.518;-3.188;2024-02-26T00:03:39;8;8;
60816;PMS5003;51921;51.518;-3.188;2024-02-26T00:06:05;7;7;
60816;PMS5003;51921;51.518;-3.188;2024-02-26T00:08:31;8;7;
60816;PMS5003;51921;51.518;-3.188;2024-02-26T00:10:56;6;6;
60816;PMS5003;51921;51.518;-3.188;2024-02-26T00:13:22;7;7;
60816;PMS5003;51921;51.518;-3.188;2024-02-26T00:15:47;7;7;
60816;PMS5003;51921;51.518;-3.188;2024-02-26T00:18:13;7;6;
60816;PMS5003;51921;51.518;-3.188;2024-02-26T00:20:39;6;6;
60816;PMS5003;51921;51.518;-3.188;2024-02-26T00:23:04;4;4;
60816;PMS5003;51921;51.518;-3.188;2024-02-26T00:25:31;5;4;
60816;PMS5003;51921;51.518;-3.188;2024-02-26T00:27:56;6;6;
60816;PMS5003;51921;51.518;-3.188;2024-02-26T00:30:21;5;5;
60816;PMS5003;51921;51.518;-3.188;2024-02-26T00:32:47;6;6;
60816;PMS5003;51921;51.518;-3.188;2024-02-26T00:35:13;5;5;
60816;PMS5003;51921;51.518;-3.188;2024-02-26T00:37:38;7;5;
60816;PMS5003;51921;51.518;-3.188;2024-02-26T00:40:04;5;5;
60816;PMS5003;51921;51.518;-3.188;2024-02-26T00:42:29;4;4;
60816;PMS5003;51921;51.518;-3.188;2024-02-26T00:44:55;4;4;
60816;PMS5003;51921;51.518;-3.188;2024-02-26T00:47:21;5;5;
60816;PMS5003;51921;51.518;-3.188;2024-02-26T00:49:46;5;4;
60816;PMS5003;51921;51.518;-3.188;2024-02-26T00:52:12;5;5;
60816;PMS5003;51921;51.518;-3.188;2024-02-26T00:54:38;6;6;
60816;PMS5003;51921;51.518;-3.188;2024-02-26T00:57:05;7;6;
60816;PMS5003;51921;51.518;-3.188;2024-02-26T00:59:29;6;5;
60816;PMS5003;51921;51.518;-3.188;2024-02-26T01:01:55;5;5;
60816;PMS5003;51921;51.518;-3.188;2024-02-26T01:04:20;4;4;
60816;PMS5003;51921;51.518;-3.188;2024-02-26T01:06:46;4;4;
60816;PMS5003;51921;51.518;-3.188;2024-02-26T01:09:12;4;4;
60816;PMS5003;51921;51.518;-3.188;2024-02-26T01:11:37;5;4;
60816;PMS5003;51921;51.518;-3.188;2024-02-26T01:14:03;3;3;
60816;PMS5003;51921;51.518;-3.188;2024-02-26T01:16:29;4;4;
60816;PMS5003;51921;51.518;-3.188;2024-02-26T01:18:54;3;3;
60816;PMS5003;51921;51.518;-3.188;2024-02-26T01:21:20;4;4;
60816;PMS5003;51921;51.518;-3.188;2024-02-26T01:23:45;3;3;
60816;PMS5003;51921;51.518;-3.188;2024-02-26T01:26:11;5;5;
60816;PMS5003;51921;51.518;-3.188;2024-02-26T01:28:37;4;4;
60816;PMS5003;51921;51.518;-3.188;2024-02-26T01:31:03;5;3;
60816;PMS5003;51921;51.518;-3.188;2024-02-26T01:33:28;4;4;
60816;PMS5003;51921;51.518;-3.188;2024-02-26T01:35:54;4;4;
60816;PMS5003;51921;51.518;-3.188;2024-02-26T01:38:19;4;4;
60816;PMS5003;51921;51.518;-3.188;2024-02-26T01:40:45;3;3;
60816;PMS5003;51921;51.518;-3.188;2024-02-26T01:43:10;3;3;
60816;PMS5003;51921;51.518;-3.188;2024-02-26T01:45:36;4;3;
60816;PMS5003;51921;51.518;-3.188;2024-02-26T01:48:02;4;4;
60816;PMS5003;51921;51.518;-3.188;2024-02-26T01:50:28;3;3;
60816;PMS5003;51921;51.518;-3.188;2024-02-26T01:52:53;4;3;
60816;PMS5003;51921;51.518;-3.188;2024-02-26T01:55:19;4;4;
60816;PMS5003;51921;51.518;-3.188;2024-02-26T01:57:45;6;5;
60816;PMS5003;51921;51.518;-3.188;2024-02-26T02:00:11;4;4;
60816;PMS5003;51921;51.518;-3.188;2024-02-26T02:02:36;7;6;
60816;PMS5003;51921;51.518;-3.188;2024-02-26T02:05:01;5;5;
60816;PMS5003;51921;51.518;-3.188;2024-02-26T02:07:27;4;4;
60816;PMS5003;51921;51.518;-3.188;2024-02-26T02:09:53;6;6;
60816;PMS5003;51921;51.518;-3.188;2024-02-26T02:12:18;8;7;
60816;PMS5003;51921;51.518;-3.188;2024-02-26T02:14:44;6;6;
60816;PMS5003;51921;51.518;-3.188;2024-02-26T02:17:09;8;7;
60816;PMS5003;51921;51.518;-3.188;2024-02-26T02:19:35;6;6;
60816;PMS5003;51921;51.518;-3.188;2024-02-26T02:22:01;8;8;
60816;PMS5003;51921;51.518;-3.188;2024-02-26T02:24:27;6;6;
60816;PMS5003;51921;51.518;-3.188;2024-02-26T02:26:52;7;6;
60816;PMS5003;51921;51.518;-3.188;2024-02-26T02:29:18;6;5;
60816;PMS5003;51921;51.518;-3.188;2024-02-26T02:31:43;7;6;
60816;PMS5003;51921;51.518;-3.188;2024-02-26T02:34:09;5;5;
60816;PMS5003;51921;51.518;-3.188;2024-02-26T02:36:34;5;5;
60816;PMS5003;51921;51.518;-3.188;2024-02-26T02:39:00;5;5;
60816;PMS5003;51921;51.518;-3.188;2024-02-26T02:41:26;6;6;
60816;PMS5003;51921;51.518;-3.188;2024-02-26T02:43:51;6;6;
60816;PMS5003;51921;51.518;-3.188;2024-02-26T02:46:17;6;6;
60816;PMS5003;51921;51.518;-3.188;2024-02-26T02:48:43;6;6;
60816;PMS5003;51921;51.518;-3.188;2024-02-26T02:51:08;7;7;
60816;PMS5003;51921;51.518;-3.188;2024-02-26T02:53:34;6;6;
60816;PMS5003;51921;51.518;-3.188;2024-02-26T02:56:01;7;6;
60816;PMS5003;51921;51.518;-3.188;2024-02-26T02:58:25;8;6;
60816;PMS5003;51921;51.518;-3.188;2024-02-26T03:00:51;6;6;
60816;PMS5003;51921;51.518;-3.188;2024-02-26T03:05:42;5;5;
60816;PMS5003;51921;51.518;-3.188;2024-02-26T03:08:08;5;5;
60816;PMS5003;51921;51.518;-3.188;2024-02-26T03:10:35;5;5;
60816;PMS5003;51921;51.518;-3.188;2024-02-26T03:12:59;4;4;
60816;PMS5003;51921;51.518;-3.188;2024-02-26T03:15:25;4;4;
60816;PMS5003;51921;51.518;-3.188;2024-02-26T03:17:52;5;5;
60816;PMS5003;51921;51.518;-3.188;2024-02-26T03:20:16;6;6;
60816;PMS5003;51921;51.518;-3.188;2024-02-26T03:22:42;4;4;
60816;PMS5003;51921;51.518;-3.188;2024-02-26T03:25:08;7;7;
60816;PMS5003;51921;51.518;-3.188;2024-02-26T03:27:33;5;4;
60816;PMS5003;51921;51.518;-3.188;2024-02-26T03:29:59;6;6;
60816;PMS5003;51921;51.518;-3.188;2024-02-26T03:32:25;5;4;
60816;PMS5003;51921;51.518;-3.188;2024-02-26T03:34:50;6;6;
60816;PMS5003;51921;51.518;-3.188;2024-02-26T03:37:16;6;6;
60816;PMS5003;51921;51.518;-3.188;2024-02-26T03:39:41;5;5;
60816;PMS5003;51921;51.518;-3.188;2024-02-26T03:42:07;5;5;
60816;PMS5003;51921;51.518;-3.188;2024-02-26T03:44:33;5;5;
60816;PMS5003;51921;51.518;-3.188;2024-02-26T03:46:58;4;4;
60816;PMS5003;51921;51.518;-3.188;2024-02-26T03:49:24;4;4;
60816;PMS5003;51921;51.518;-3.188;2024-02-26T03:51:50;7;6;
60816;PMS5003;51921;51.518;-3.188;2024-02-26T03:54:15;6;6;
60816;PMS5003;51921;51.518;-3.188;2024-02-26T03:56:41;5;5;
60816;PMS5003;51921;51.518;-3.188;2024-02-26T03:59:06;4;4;
60816;PMS5003;51921;51.518;-3.188;2024-02-26T04:01:32;6;6;
60816;PMS5003;51921;51.518;-3.188;2024-02-26T04:03:58;7;7;
60816;PMS5003;51921;51.518;-3.188;2024-02-26T04:06:23;5;5;
60816;PMS5003;51921;51.518;-3.188;2024-02-26T04:08:49;6;6;
60816;PMS5003;51921;51.518;-3.188;2024-02-26T04:11:15;6;6;
60816;PMS5003;51921;51.518;-3.188;2024-02-26T04:13:40;6;6;
60816;PMS5003;51921;51.518;-3.188;2024-02-26T04:16:06;6;5;
60816;PMS5003;51921;51.518;-3.188;2024-02-26T04:18:32;6;6;
60816;PMS5003;51921;51.518;-3.188;2024-02-26T04:20:58;6;6;
60816;PMS5003;51921;51.518;-3.188;2024-02-26T04:23:23;6;6;
60816;PMS5003;51921;51.518;-3.188;2024-02-26T04:25:49;7;7;
60816;PMS5003;51921;51.518;-3.188;2024-02-26T04:28:14;7;7;
60816;PMS5003;51921;51.518;-3.188;2024-02-26T04:30:40;7;7;
60816;PMS5003;51921;51.518;-3.188;2024-02-26T04:33:05;6;6;
60816;PMS5003;51921;51.518;-3.188;2024-02-26T04:35:31;7;7;
60816;PMS5003;51921;51.518;-3.188;2024-02-26T04:37:57;8;8;
60816;PMS5003;51921;51.518;-3.188;2024-02-26T04:40:23;5;5;
60816;PMS5003;51921;51.518;-3.188;2024-02-26T04:42:48;7;7;
60816;PMS5003;51921;51.518;-3.188;2024-02-26T04:45:14;6;6;
60816;PMS5003;51921;51.518;-3.188;2024-02-26T04:47:39;8;8;
60816;PMS5003;51921;51.518;-3.188;2024-02-26T04:50:05;7;6;
60816;PMS5003;51921;51.518;-3.188;2024-02-26T04:52:31;6;5;
60816;PMS5003;51921;51.518;-3.188;2024-02-26T04:54:56;9;7;
60816;PMS5003;51921;51.518;-3.188;2024-02-26T04:57:22;7;7;
60816;PMS5003;51921;51.518;-3.188;2024-02-26T04:59:48;10;8;
60816;PMS5003;51921;51.518;-3.188;2024-02-26T05:02:13;6;6;
60816;PMS5003;51921;51.518;-3.188;2024-02-26T05:04:39;6;6;
60816;PMS5003;51921;51.518;-3.188;2024-02-26T05:07:05;6;6;
60816;PMS5003;51921;51.518;-3.188;2024-02-26T05:09:31;6;5;
60816;PMS5003;51921;51.518;-3.188;2024-02-26T05:11:56;7;6;
60816;PMS5003;51921;51.518;-3.188;2024-02-26T05:14:22;6;6;
60816;PMS5003;51921;51.518;-3.188;2024-02-26T05:16:47;4;4;
60816;PMS5003;51921;51.518;-3.188;2024-02-26T05:19:13;5;5;
60816;PMS5003;51921;51.518;-3.188;2024-02-26T05:21:38;5;5;
60816;PMS5003;51921;51.518;-3.188;2024-02-26T05:24:04;7;5;
60816;PMS5003;51921;51.518;-3.188;2024-02-26T05:26:30;4;4;
60816;PMS5003;51921;51.518;-3.188;2024-02-26T05:28:55;5;5;
60816;PMS5003;51921;51.518;-3.188;2024-02-26T05:31:21;3;3;
60816;PMS5003;51921;51.518;-3.188;2024-02-26T05:33:47;5;5;
60816;PMS5003;51921;51.518;-3.188;2024-02-26T05:38:38;4;4;
60816;PMS5003;51921;51.518;-3.188;2024-02-26T05:41:04;4;4;
60816;PMS5003;51921;51.518;-3.188;2024-02-26T05:43:29;4;3;
60816;PMS5003;51921;51.518;-3.188;2024-02-26T05:45:55;4;4;
60816;PMS5003;51921;51.518;-3.188;2024-02-26T05:48:21;5;4;
60816;PMS5003;51921;51.518;-3.188;2024-02-26T05:50:46;6;5;
60816;PMS5003;51921;51.518;-3.188;2024-02-26T05:53:12;5;4;
60816;PMS5003;51921;51.518;-3.188;2024-02-26T05:55:37;3;3;
60816;PMS5003;51921;51.518;-3.188;2024-02-26T05:58:03;3;3;
60816;PMS5003;51921;51.518;-3.188;2024-02-26T06:00:28;5;5;
60816;PMS5003;51921;51.518;-3.188;2024-02-26T06:02:54;6;4;
60816;PMS5003;51921;51.518;-3.188;2024-02-26T06:05:20;3;3;
60816;PMS5003;51921;51.518;-3.188;2024-02-26T06:07:48;5;5;
60816;PMS5003;51921;51.518;-3.188;2024-02-26T06:10:11;4;3;
60816;PMS5003;51921;51.518;-3.188;2024-02-26T06:12:37;4;4;
60816;PMS5003;51921;51.518;-3.188;2024-02-26T06:15:02;3;3;
60816;PMS5003;51921;51.518;-3.188;2024-02-26T06:17:28;4;4;
60816;PMS5003;51921;51.518;-3.188;2024-02-26T06:19:54;3;3;
60816;PMS5003;51921;51.518;-3.188;2024-02-26T06:22:19;4;4;
60816;PMS5003;51921;51.518;-3.188;2024-02-26T06:24:45;4;4;
60816;PMS5003;51921;51.518;-3.188;2024-02-26T06:27:11;3;3;
60816;PMS5003;51921;51.518;-3.188;2024-02-26T06:29:36;3;3;
60816;PMS5003;51921;51.518;-3.188;2024-02-26T06:34:27;4;4;
60816;PMS5003;51921;51.518;-3.188;2024-02-26T06:36:53;3;3;
60816;PMS5003;51921;51.518;-3.188;2024-02-26T06:39:18;3;3;
60816;PMS5003;51921;51.518;-3.188;2024-02-26T06:41:44;4;4;
60816;PMS5003;51921;51.518;-3.188;2024-02-26T06:44:10;4;4;
60816;PMS5003;51921;51.518;-3.188;2024-02-26T06:46:35;6;5;
60816;PMS5003;51921;51.518;-3.188;2024-02-26T06:49:01;3;3;
60816;PMS5003;51921;51.518;-3.188;2024-02-26T06:51:27;5;3;
60816;PMS5003;51921;51.518;-3.188;2024-02-26T06:58:44;5;4;
60816;PMS5003;51921;51.518;-3.188;2024-02-26T07:01:10;4;4;
60816;PMS5003;51921;51.518;-3.188;2024-02-26T07:03:35;3;3;
60816;PMS5003;51921;51.518;-3.188;2024-02-26T07:06:01;3;3;
60816;PMS5003;51921;51.518;-3.188;2024-02-26T07:08:26;3;3;
60816;PMS5003;51921;51.518;-3.188;2024-02-26T07:10:52;4;4;
60816;PMS5003;51921;51.518;-3.188;2024-02-26T07:13:18;4;4;
60816;PMS5003;51921;51.518;-3.188;2024-02-26T07:15:43;3;3;
60816;PMS5003;51921;51.518;-3.188;2024-02-26T07:18:09;3;3;
60816;PMS5003;51921;51.518;-3.188;2024-02-26T07:23:00;5;4;
60816;PMS5003;51921;51.518;-3.188;2024-02-26T07:25:26;3;3;
60816;PMS5003;51921;51.518;-3.188;2024-02-26T07:27:51;3;2;
60816;PMS5003;51921;51.518;-3.188;2024-02-26T07:30:17;2;2;
60816;PMS5003;51921;51.518;-3.188;2024-02-26T07:32:43;5;3;
60816;PMS5003;51921;51.518;-3.188;2024-02-26T07:35:09;3;2;
60816;PMS5003;51921;51.518;-3.188;2024-02-26T07:37:34;3;3;
60816;PMS5003;51921;51.518;-3.188;2024-02-26T07:40:00;3;3;
60816;PMS5003;51921;51.518;-3.188;2024-02-26T07:42:25;3;2;
60816;PMS5003;51921;51.518;-3.188;2024-02-26T07:44:51;3;3;
60816;PMS5003;51921;51.518;-3.188;2024-02-26T07:47:17;3;2;
60816;PMS5003;51921;51.518;-3.188;2024-02-26T07:49:42;4;3;
60816;PMS5003;51921;51.518;-3.188;2024-02-26T07:52:08;2;2;
60816;PMS5003;51921;51.518;-3.188;2024-02-26T07:54:34;2;2;
60816;PMS5003;51921;51.518;-3.188;2024-02-26T07:56:59;3;3;
60816;PMS5003;51921;51.518;-3.188;2024-02-26T07:59:25;2;2;
60816;PMS5003;51921;51.518;-3.188;2024-02-26T08:01:51;4;3;
60816;PMS5003;51921;51.518;-3.188;2024-02-26T08:04:16;3;3;
60816;PMS5003;51921;51.518;-3.188;2024-02-26T08:06:42;4;4;
60816;PMS5003;51921;51.518;-3.188;2024-02-26T08:11:33;4;4;
60816;PMS5003;51921;51.518;-3.188;2024-02-26T08:13:59;3;3;
60816;PMS5003;51921;51.518;-3.188;2024-02-26T08:16:24;3;3;
60816;PMS5003;51921;51.518;-3.188;2024-02-26T08:18:50;3;3;
60816;PMS5003;51921;51.518;-3.188;2024-02-26T08:21:16;2;2;
60816;PMS5003;51921;51.518;-3.188;2024-02-26T08:23:42;5;4;
60816;PMS5003;51921;51.518;-3.188;2024-02-26T08:26:07;3;3;
60816;PMS5003;51921;51.518;-3.188;2024-02-26T08:33:24;3;3;
60816;PMS5003;51921;51.518;-3.188;2024-02-26T08:35:50;4;3;
60816;PMS5003;51921;51.518;-3.188;2024-02-26T08:38:15;3;3;
60816;PMS5003;51921;51.518;-3.188;2024-02-26T08:40:41;3;3;
60816;PMS5003;51921;51.518;-3.188;2024-02-26T08:43:06;4;4;
60816;PMS5003;51921;51.518;-3.188;2024-02-26T08:45:33;3;3;
60816;PMS5003;51921;51.518;-3.188;2024-02-26T08:48:03;3;3;
60816;PMS5003;51921;51.518;-3.188;2024-02-26T08:50:23;2;2;
60816;PMS5003;51921;51.518;-3.188;2024-02-26T08:52:49;2;2;
60816;PMS5003;51921;51.518;-3.188;2024-02-26T08:55:15;3;3;
60816;PMS5003;51921;51.518;-3.188;2024-02-26T08:57:40;3;3;
60816;PMS5003;51921;51.518;-3.188;2024-02-26T09:00:06;2;2;
60816;PMS5003;51921;51.518;-3.188;2024-02-26T09:02:31;1;1;
60816;PMS5003;51921;51.518;-3.188;2024-02-26T09:09:48;2;2;
60816;PMS5003;51921;51.518;-3.188;2024-02-26T09:12:19;3;3;
60816;PMS5003;51921;51.518;-3.188;2024-02-26T09:14:39;2;2;
60816;PMS5003;51921;51.518;-3.188;2024-02-26T09:17:05;3;2;
60816;PMS5003;51921;51.518;-3.188;2024-02-26T09:19:31;2;1;
60816;PMS5003;51921;51.518;-3.188;2024-02-26T09:21:56;3;2;
60816;PMS5003;51921;51.518;-3.188;2024-02-26T09:24:22;4;3;
60816;PMS5003;51921;51.518;-3.188;2024-02-26T09:26:47;3;3;
60816;PMS5003;51921;51.518;-3.188;2024-02-26T09:29:14;4;4;
60816;PMS5003;51921;51.518;-3.188;2024-02-26T09:31:39;3;3;
60816;PMS5003;51921;51.518;-3.188;2024-02-26T09:34:04;4;4;
60816;PMS5003;51921;51.518;-3.188;2024-02-26T09:36:30;4;3;
60816;PMS5003;51921;51.518;-3.188;2024-02-26T09:38:55;5;4;
60816;PMS5003;51921;51.518;-3.188;2024-02-26T09:41:21;5;5;
60816;PMS5003;51921;51.518;-3.188;2024-02-26T09:43:46;3;3;
60816;PMS5003;51921;51.518;-3.188;2024-02-26T09:48:38;4;4;
60816;PMS5003;51921;51.518;-3.188;2024-02-26T09:51:03;4;4;
60816;PMS5003;51921;51.518;-3.188;2024-02-26T09:53:29;3;3;
60816;PMS5003;51921;51.518;-3.188;2024-02-26T09:55:54;3;3;
60816;PMS5003;51921;51.518;-3.188;2024-02-26T09:58:20;3;2;
60816;PMS5003;51921;51.518;-3.188;2024-02-26T10:00:46;3;2;
60816;PMS5003;51921;51.518;-3.188;2024-02-26T10:03:12;2;2;
60816;PMS5003;51921;51.518;-3.188;2024-02-26T10:05:37;2;2;
60816;PMS5003;51921;51.518;-3.188;2024-02-26T10:08:02;3;3;
60816;PMS5003;51921;51.518;-3.188;2024-02-26T10:10:28;2;2;
60816;PMS5003;51921;51.518;-3.188;2024-02-26T10:12:53;3;3;
60816;PMS5003;51921;51.518;-3.188;2024-02-26T10:15:19;2;2;
60816;PMS5003;51921;51.518;-3.188;2024-02-26T10:17:44;2;1;
60816;PMS5003;51921;51.518;-3.188;2024-02-26T10:20:11;3;3;
60816;PMS5003;51921;51.518;-3.188;2024-02-26T10:22:35;4;2;
60816;PMS5003;51921;51.518;-3.188;2024-02-26T10:25:01;1;1;
60816;PMS5003;51921;51.518;-3.188;2024-02-26T10:27:27;3;3;
60816;PMS5003;51921;51.518;-3.188;2024-02-26T10:29:52;3;3;
60816;PMS5003;51921;51.518;-3.188;2024-02-26T10:32:18;3;3;
60816;PMS5003;51921;51.518;-3.188;2024-02-26T10:37:09;2;2;
60816;PMS5003;51921;51.518;-3.188;2024-02-26T10:39:36;4;4;
60816;PMS5003;51921;51.518;-3.188;2024-02-26T10:42:00;4;4;
60816;PMS5003;51921;51.518;-3.188;2024-02-26T10:44:26;3;2;
60816;PMS5003;51921;51.518;-3.188;2024-02-26T10:46:51;3;3;
60816;PMS5003;51921;51.518;-3.188;2024-02-26T10:49:17;2;2;
60816;PMS5003;51921;51.518;-3.188;2024-02-26T10:54:09;2;2;
60816;PMS5003;51921;51.518;-3.188;2024-02-26T10:56:34;3;3;
60816;PMS5003;51921;51.518;-3.188;2024-02-26T10:59:00;3;3;
60816;PMS5003;51921;51.518;-3.188;2024-02-26T11:01:26;1;1;
60816;PMS5003;51921;51.518;-3.188;2024-02-26T11:03:51;3;3;
60816;PMS5003;51921;51.518;-3.188;2024-02-26T11:08:42;2;2;
60816;PMS5003;51921;51.518;-3.188;2024-02-26T11:11:08;3;3;
60816;PMS5003;51921;51.518;-3.188;2024-02-26T11:13:33;0;0;
60816;PMS5003;51921;51.518;-3.188;2024-02-26T11:15:59;2;2;
60816;PMS5003;51921;51.518;-3.188;2024-02-26T11:18:24;3;2;
60816;PMS5003;51921;51.518;-3.188;2024-02-26T11:20:50;2;2;
60816;PMS5003;51921;51.518;-3.188;2024-02-26T11:23:15;2;2;
60816;PMS5003;51921;51.518;-3.188;2024-02-26T11:25:41;3;3;
60816;PMS5003;51921;51.518;-3.188;2024-02-26T11:28:08;3;3;
60816;PMS5003;51921;51.518;-3.188;2024-02-26T11:30:33;3;3;
60816;PMS5003;51921;51.518;-3.188;2024-02-26T11:32:58;2;2;
60816;PMS5003;51921;51.518;-3.188;2024-02-26T11:35:23;3;3;
60816;PMS5003;51921;51.518;-3.188;2024-02-26T11:37:53;2;2;
60816;PMS5003;51921;51.518;-3.188;2024-02-26T11:40:14;4;3;
60816;PMS5003;51921;51.518;-3.188;2024-02-26T11:42:43;2;2;
60816;PMS5003;51921;51.518;-3.188;2024-02-26T11:45:06;4;4;
60816;PMS5003;51921;51.518;-3.188;2024-02-26T11:47:31;3;3;
60816;PMS5003;51921;51.518;-3.188;2024-02-26T11:49:57;4;4;
60816;PMS5003;51921;51.518;-3.188;2024-02-26T11:52:22;3;3;
60816;PMS5003;51921;51.518;-3.188;2024-02-26T11:54:48;3;3;
60816;PMS5003;51921;51.518;-3.188;2024-02-26T11:57:20;5;4;
60816;PMS5003;51921;51.518;-3.188;2024-02-26T11:59:39;2;2;
60816;PMS5003;51921;51.518;-3.188;2024-02-26T12:02:04;2;2;
60816;PMS5003;51921;51.518;-3.188;2024-02-26T12:04:30;3;3;
60816;PMS5003;51921;51.518;-3.188;2024-02-26T12:06:56;3;3;
60816;PMS5003;51921;51.518;-3.188;2024-02-26T12:11:48;2;2;
60816;PMS5003;51921;51.518;-3.188;2024-02-26T12:14:13;2;2;
60816;PMS5003;51921;51.518;-3.188;2024-02-26T12:16:45;2;1;
60816;PMS5003;51921;51.518;-3.188;2024-02-26T12:19:06;2;2;
60816;PMS5003;51921;51.518;-3.188;2024-02-26T12:21:30;5;2;
60816;PMS5003;51921;51.518;-3.188;2024-02-26T12:23:55;1;1;
60816;PMS5003;51921;51.518;-3.188;2024-02-26T12:26:20;1;1;
60816;PMS5003;51921;51.518;-3.188;2024-02-26T12:28:46;3;2;
60816;PMS5003;51921;51.518;-3.188;2024-02-26T12:31:12;2;2;
60816;PMS5003;51921;51.518;-3.188;2024-02-26T12:33:37;2;2;
60816;PMS5003;51921;51.518;-3.188;2024-02-26T12:36:03;3;2;
60816;PMS5003;51921;51.518;-3.188;2024-02-26T12:38:28;2;2;
60816;PMS5003;51921;51.518;-3.188;2024-02-26T12:40:54;2;2;
60816;PMS5003;51921;51.518;-3.188;2024-02-26T12:43:19;1;1;
60816;PMS5003;51921;51.518;-3.188;2024-02-26T12:45:45;1;1;
60816;PMS5003;51921;51.518;-3.188;2024-02-26T12:48:11;2;2;
60816;PMS5003;51921;51.518;-3.188;2024-02-26T12:50:36;1;1;
60816;PMS5003;51921;51.518;-3.188;2024-02-26T12:53:02;3;3;
60816;PMS5003;51921;51.518;-3.188;2024-02-26T12:55:27;2;2;
60816;PMS5003;51921;51.518;-3.188;2024-02-26T12:57:53;2;1;
60816;PMS5003;51921;51.518;-3.188;2024-02-26T13:00:20;2;2;
60816;PMS5003;51921;51.518;-3.188;2024-02-26T13:02:46;2;2;
60816;PMS5003;51921;51.518;-3.188;2024-02-26T13:05:11;5;4;
60816;PMS5003;51921;51.518;-3.188;2024-02-26T13:12:26;2;2;
60816;PMS5003;51921;51.518;-3.188;2024-02-26T13:17:21;1;1;
60816;PMS5003;51921;51.518;-3.188;2024-02-26T13:19:49;1;1;
60816;PMS5003;51921;51.518;-3.188;2024-02-26T13:22:08;1;1;
60816;PMS5003;51921;51.518;-3.188;2024-02-26T13:24:34;2;2;
60816;PMS5003;51921;51.518;-3.188;2024-02-26T13:26:59;3;2;
60816;PMS5003;51921;51.518;-3.188;2024-02-26T13:29:25;3;2;
60816;PMS5003;51921;51.518;-3.188;2024-02-26T13:31:53;4;3;
60816;PMS5003;51921;51.518;-3.188;2024-02-26T13:36:42;2;2;
60816;PMS5003;51921;51.518;-3.188;2024-02-26T13:39:07;4;4;
60816;PMS5003;51921;51.518;-3.188;2024-02-26T13:41:33;3;3;
60816;PMS5003;51921;51.518;-3.188;2024-02-26T13:43:58;2;1;
60816;PMS5003;51921;51.518;-3.188;2024-02-26T13:46:24;2;2;
60816;PMS5003;51921;51.518;-3.188;2024-02-26T13:48:49;1;1;
60816;PMS5003;51921;51.518;-3.188;2024-02-26T13:51:15;2;2;
60816;PMS5003;51921;51.518;-3.188;2024-02-26T13:53:40;2;2;
60816;PMS5003;51921;51.518;-3.188;2024-02-26T13:56:06;1;1;
60816;PMS5003;51921;51.518;-3.188;2024-02-26T13:58:32;0;0;
60816;PMS5003;51921;51.518;-3.188;2024-02-26T14:00:57;1;1;
60816;PMS5003;51921;51.518;-3.188;2024-02-26T14:03:23;1;1;
60816;PMS5003;51921;51.518;-3.188;2024-02-26T14:05:48;1;1;
60816;PMS5003;51921;51.518;-3.188;2024-02-26T14:08:14;1;1;
60816;PMS5003;51921;51.518;-3.188;2024-02-26T14:10:39;1;1;
60816;PMS5003;51921;51.518;-3.188;2024-02-26T14:13:05;2;2;
60816;PMS5003;51921;51.518;-3.188;2024-02-26T14:15:30;1;1;
60816;PMS5003;51921;51.518;-3.188;2024-02-26T14:17:56;1;1;
60816;PMS5003;51921;51.518;-3.188;2024-02-26T14:20:22;1;1;
60816;PMS5003;51921;51.518;-3.188;2024-02-26T14:22:48;1;1;
60816;PMS5003;51921;51.518;-3.188;2024-02-26T14:25:13;1;1;
60816;PMS5003;51921;51.518;-3.188;2024-02-26T14:27:38;2;2;
60816;PMS5003;51921;51.518;-3.188;2024-02-26T14:30:04;1;1;
60816;PMS5003;51921;51.518;-3.188;2024-02-26T14:32:30;2;1;
60816;PMS5003;51921;51.518;-3.188;2024-02-26T14:34:55;2;2;
60816;PMS5003;51921;51.518;-3.188;2024-02-26T14:37:20;2;1;
60816;PMS5003;51921;51.518;-3.188;2024-02-26T14:39:46;2;2;
60816;PMS5003;51921;51.518;-3.188;2024-02-26T14:42:12;1;1;
60816;PMS5003;51921;51.518;-3.188;2024-02-26T14:44:39;2;2;
60816;PMS5003;51921;51.518;-3.188;2024-02-26T14:47:03;1;1;
60816;PMS5003;51921;51.518;-3.188;2024-02-26T14:49:28;1;1;
60816;PMS5003;51921;51.518;-3.188;2024-02-26T14:51:54;2;2;
60816;PMS5003;51921;51.518;-3.188;2024-02-26T14:54:19;3;3;
60816;PMS5003;51921;51.518;-3.188;2024-02-26T14:56:45;0;0;
60816;PMS5003;51921;51.518;-3.188;2024-02-26T14:59:10;1;1;
60816;PMS5003;51921;51.518;-3.188;2024-02-26T15:01:36;2;2;
60816;PMS5003;51921;51.518;-3.188;2024-02-26T15:04:01;2;2;
60816;PMS5003;51921;51.518;-3.188;2024-02-26T15:06:27;2;2;
60816;PMS5003;51921;51.518;-3.188;2024-02-26T15:08:53;1;1;
60816;PMS5003;51921;51.518;-3.188;2024-02-26T15:11:18;2;1;
60816;PMS5003;51921;51.518;-3.188;2024-02-26T15:13:44;2;2;
60816;PMS5003;51921;51.518;-3.188;2024-02-26T15:18:36;2;2;
60816;PMS5003;51921;51.518;-3.188;2024-02-26T15:21:00;1;1;
60816;PMS5003;51921;51.518;-3.188;2024-02-26T15:23:26;2;2;
60816;PMS5003;51921;51.518;-3.188;2024-02-26T15:25:51;2;2;
60816;PMS5003;51921;51.518;-3.188;2024-02-26T15:28:22;2;2;
60816;PMS5003;51921;51.518;-3.188;2024-02-26T15:30:48;3;2;
60816;PMS5003;51921;51.518;-3.188;2024-02-26T15:33:08;1;1;
60816;PMS5003;51921;51.518;-3.188;2024-02-26T15:35:34;1;1;
60816;PMS5003;51921;51.518;-3.188;2024-02-26T15:37:59;1;1;
60816;PMS5003;51921;51.518;-3.188;2024-02-26T15:40:25;0;0;
60816;PMS5003;51921;51.518;-3.188;2024-02-26T15:42:50;1;1;
60816;PMS5003;51921;51.518;-3.188;2024-02-26T15:45:16;0;0;
60816;PMS5003;51921;51.518;-3.188;2024-02-26T15:47:44;2;1;
60816;PMS5003;51921;51.518;-3.188;2024-02-26T15:50:07;1;1;
60816;PMS5003;51921;51.518;-3.188;2024-02-26T15:52:33;1;1;
60816;PMS5003;51921;51.518;-3.188;2024-02-26T15:54:58;1;1;
60816;PMS5003;51921;51.518;-3.188;2024-02-26T15:57:24;0;0;
60816;PMS5003;51921;51.518;-3.188;2024-02-26T15:59:49;1;1;
60816;PMS5003;51921;51.518;-3.188;2024-02-26T16:02:15;1;1;
60816;PMS5003;51921;51.518;-3.188;2024-02-26T16:04:40;1;1;
60816;PMS5003;51921;51.518;-3.188;2024-02-26T16:07:06;0;0;
60816;PMS5003;51921;51.518;-3.188;2024-02-26T16:09:31;2;2;
60816;PMS5003;51921;51.518;-3.188;2024-02-26T16:11:57;2;2;
60816;PMS5003;51921;51.518;-3.188;2024-02-26T16:14:26;2;2;
60816;PMS5003;51921;51.518;-3.188;2024-02-26T16:16:49;2;2;
60816;PMS5003;51921;51.518;-3.188;2024-02-26T16:19:14;1;1;
60816;PMS5003;51921;51.518;-3.188;2024-02-26T16:21:39;2;2;
60816;PMS5003;51921;51.518;-3.188;2024-02-26T16:24:05;2;2;
60816;PMS5003;51921;51.518;-3.188;2024-02-26T16:26:30;2;1;
60816;PMS5003;51921;51.518;-3.188;2024-02-26T16:28:56;1;1;
60816;PMS5003;51921;51.518;-3.188;2024-02-26T16:31:21;1;1;
60816;PMS5003;51921;51.518;-3.188;2024-02-26T16:33:47;2;2;
60816;PMS5003;51921;51.518;-3.188;2024-02-26T16:36:12;1;1;
60816;PMS5003;51921;51.518;-3.188;2024-02-26T16:38:38;1;1;
60816;PMS5003;51921;51.518;-3.188;2024-02-26T16:41:04;1;1;
60816;PMS5003;51921;51.518;-3.188;2024-02-26T16:43:29;1;1;
60816;PMS5003;51921;51.518;-3.188;2024-02-26T16:45:55;2;1;
60816;PMS5003;51921;51.518;-3.188;2024-02-26T16:48:20;2;1;
60816;PMS5003;51921;51.518;-3.188;2024-02-26T16:50:46;1;1;
60816;PMS5003;51921;51.518;-3.188;2024-02-26T16:53:11;1;1;
60816;PMS5003;51921;51.518;-3.188;2024-02-26T16:55:37;1;1;
60816;PMS5003;51921;51.518;-3.188;2024-02-26T16:58:08;2;1;
60816;PMS5003;51921;51.518;-3.188;2024-02-26T17:00:28;1;0;
60816;PMS5003;51921;51.518;-3.188;2024-02-26T17:02:53;2;2;
60816;PMS5003;51921;51.518;-3.188;2024-02-26T17:05:21;1;0;
60816;PMS5003;51921;51.518;-3.188;2024-02-26T17:10:11;5;3;
60816;PMS5003;51921;51.518;-3.188;2024-02-26T17:15:01;2;2;
60816;PMS5003;51921;51.518;-3.188;2024-02-26T17:36:51;3;2;